sensor_id;sensor_type;location;lat;lon;timestamp;temperature;humidity
7349;DHT22;13010;-33.424;-70.614;2023-04-01T00:02:01;16.40;77.90
7349;DHT22;13010;-33.424;-70.614;2023-04-01T00:04:49;16.30;99.90
7349;DHT22;13010;-33.424;-70.614;2023-04-01T00:07:38;16.30;99.90
7349;DHT22;13010;-33.424;-70.614;2023-04-01T00:10:28;16.30;99.90
7349;DHT22;13010;-33.424;-70.614;2023-04-01T00:13:18;16.20;99.90
7349;DHT22;13010;-33.424;-70.614;2023-04-01T00:16:07;15.60;99.90
7349;DHT22;13010;-33.424;-70.614;2023-04-01T00:18:56;15.50;99.90
7349;DHT22;13010;-33.424;-70.614;2023-04-01T00:21:45;15.50;99.90
7349;DHT22;13010;-33.424;-70.614;2023-04-01T00:24:34;15.50;99.90
7349;DHT22;13010;-33.424;-70.614;2023-04-01T00:27:25;15.70;99.90
7349;DHT22;13010;-33.424;-70.614;2023-04-01T00:30:17;15.50;99.90
7349;DHT22;13010;-33.424;-70.614;2023-04-01T00:33:07;15.40;99.90
7349;DHT22;13010;-33.424;-70.614;2023-04-01T00:35:56;15.50;99.90
7349;DHT22;13010;-33.424;-70.614;2023-04-01T00:38:45;15.90;99.90
7349;DHT22;13010;-33.424;-70.614;2023-04-01T00:41:34;16.00;99.90
7349;DHT22;13010;-33.424;-70.614;2023-04-01T00:44:27;16.30;99.90
7349;DHT22;13010;-33.424;-70.614;2023-04-01T00:47:17;16.60;98.40
7349;DHT22;13010;-33.424;-70.614;2023-04-01T00:50:07;16.60;98.00
7349;DHT22;13010;-33.424;-70.614;2023-04-01T00:52:56;16.60;97.10
7349;DHT22;13010;-33.424;-70.614;2023-04-01T00:55:50;16.30;93.90
7349;DHT22;13010;-33.424;-70.614;2023-04-01T00:58:43;16.00;99.90
7349;DHT22;13010;-33.424;-70.614;2023-04-01T01:01:34;15.90;99.90
7349;DHT22;13010;-33.424;-70.614;2023-04-01T01:04:25;15.70;99.90
7349;DHT22;13010;-33.424;-70.614;2023-04-01T01:07:22;15.50;99.90
7349;DHT22;13010;-33.424;-70.614;2023-04-01T01:10:17;15.50;98.90
7349;DHT22;13010;-33.424;-70.614;2023-04-01T01:13:12;15.40;97.50
7349;DHT22;13010;-33.424;-70.614;2023-04-01T01:16:09;15.20;94.40
7349;DHT22;13010;-33.424;-70.614;2023-04-01T01:19:09;15.20;95.10
7349;DHT22;13010;-33.424;-70.614;2023-04-01T01:22:35;15.20;96.30
7349;DHT22;13010;-33.424;-70.614;2023-04-01T01:25:34;15.20;98.20
7349;DHT22;13010;-33.424;-70.614;2023-04-01T01:28:36;15.20;99.90
7349;DHT22;13010;-33.424;-70.614;2023-04-01T01:31:36;15.00;99.90
7349;DHT22;13010;-33.424;-70.614;2023-04-01T01:34:31;14.90;99.90
7349;DHT22;13010;-33.424;-70.614;2023-04-01T01:37:28;14.80;99.90
7349;DHT22;13010;-33.424;-70.614;2023-04-01T01:40:19;14.70;99.90
7349;DHT22;13010;-33.424;-70.614;2023-04-01T01:43:10;14.60;99.90
7349;DHT22;13010;-33.424;-70.614;2023-04-01T01:46:06;14.50;99.90
7349;DHT22;13010;-33.424;-70.614;2023-04-01T01:48:57;14.40;99.90
7349;DHT22;13010;-33.424;-70.614;2023-04-01T01:51:48;14.30;99.90
7349;DHT22;13010;-33.424;-70.614;2023-04-01T01:54:48;14.20;99.90
7349;DHT22;13010;-33.424;-70.614;2023-04-01T01:57:39;14.00;99.90
7349;DHT22;13010;-33.424;-70.614;2023-04-01T02:00:28;14.00;99.90
7349;DHT22;13010;-33.424;-70.614;2023-04-01T02:03:18;13.90;99.90
7349;DHT22;13010;-33.424;-70.614;2023-04-01T02:06:09;13.70;99.90
7349;DHT22;13010;-33.424;-70.614;2023-04-01T02:09:01;13.50;99.90
7349;DHT22;13010;-33.424;-70.614;2023-04-01T02:11:55;13.30;99.90
7349;DHT22;13010;-33.424;-70.614;2023-04-01T02:14:47;13.20;99.90
7349;DHT22;13010;-33.424;-70.614;2023-04-01T02:17:42;13.00;99.90
7349;DHT22;13010;-33.424;-70.614;2023-04-01T02:20:32;12.80;99.90
7349;DHT22;13010;-33.424;-70.614;2023-04-01T02:23:22;12.60;99.90
7349;DHT22;13010;-33.424;-70.614;2023-04-01T02:26:12;12.60;99.90
7349;DHT22;13010;-33.424;-70.614;2023-04-01T02:29:04;12.60;99.90
7349;DHT22;13010;-33.424;-70.614;2023-04-01T02:31:54;12.60;99.90
7349;DHT22;13010;-33.424;-70.614;2023-04-01T02:34:44;12.50;99.90
7349;DHT22;13010;-33.424;-70.614;2023-04-01T02:37:33;12.50;99.90
7349;DHT22;13010;-33.424;-70.614;2023-04-01T02:40:23;12.40;99.90
7349;DHT22;13010;-33.424;-70.614;2023-04-01T02:43:12;12.20;99.90
7349;DHT22;13010;-33.424;-70.614;2023-04-01T02:46:03;12.10;99.90
7349;DHT22;13010;-33.424;-70.614;2023-04-01T02:48:52;12.10;99.90
7349;DHT22;13010;-33.424;-70.614;2023-04-01T02:51:44;12.40;99.90
7349;DHT22;13010;-33.424;-70.614;2023-04-01T02:54:33;12.50;99.90
7349;DHT22;13010;-33.424;-70.614;2023-04-01T02:57:22;12.30;99.90
7349;DHT22;13010;-33.424;-70.614;2023-04-01T03:00:12;12.10;99.90
7349;DHT22;13010;-33.424;-70.614;2023-04-01T03:03:03;11.90;99.90
7349;DHT22;13010;-33.424;-70.614;2023-04-01T03:05:52;12.00;99.90
7349;DHT22;13010;-33.424;-70.614;2023-04-01T03:08:42;12.10;99.90
7349;DHT22;13010;-33.424;-70.614;2023-04-01T03:11:31;12.30;99.90
7349;DHT22;13010;-33.424;-70.614;2023-04-01T03:14:20;12.40;99.90
7349;DHT22;13010;-33.424;-70.614;2023-04-01T03:17:09;12.20;99.90
7349;DHT22;13010;-33.424;-70.614;2023-04-01T03:20:00;11.90;99.90
7349;DHT22;13010;-33.424;-70.614;2023-04-01T03:22:50;11.60;99.90
7349;DHT22;13010;-33.424;-70.614;2023-04-01T03:25:40;11.40;99.90
7349;DHT22;13010;-33.424;-70.614;2023-04-01T03:28:29;11.30;99.90
7349;DHT22;13010;-33.424;-70.614;2023-04-01T03:31:18;11.20;99.90
7349;DHT22;13010;-33.424;-70.614;2023-04-01T03:34:07;11.10;99.90
7349;DHT22;13010;-33.424;-70.614;2023-04-01T03:36:59;11.00;99.90
7349;DHT22;13010;-33.424;-70.614;2023-04-01T03:39:48;10.90;99.90
7349;DHT22;13010;-33.424;-70.614;2023-04-01T03:42:37;10.90;99.90
7349;DHT22;13010;-33.424;-70.614;2023-04-01T03:45:26;10.90;99.90
7349;DHT22;13010;-33.424;-70.614;2023-04-01T03:48:16;10.90;99.90
7349;DHT22;13010;-33.424;-70.614;2023-04-01T03:51:08;10.90;99.90
7349;DHT22;13010;-33.424;-70.614;2023-04-01T03:53:59;10.90;99.90
7349;DHT22;13010;-33.424;-70.614;2023-04-01T03:56:48;10.90;99.90
7349;DHT22;13010;-33.424;-70.614;2023-04-01T03:59:37;10.90;99.90
7349;DHT22;13010;-33.424;-70.614;2023-04-01T04:02:26;11.00;99.90
7349;DHT22;13010;-33.424;-70.614;2023-04-01T04:05:15;11.20;99.90
7349;DHT22;13010;-33.424;-70.614;2023-04-01T04:08:04;11.40;99.90
7349;DHT22;13010;-33.424;-70.614;2023-04-01T04:11:00;11.70;99.90
7349;DHT22;13010;-33.424;-70.614;2023-04-01T04:13:49;11.70;99.90
7349;DHT22;13010;-33.424;-70.614;2023-04-01T04:16:38;11.80;99.90
7349;DHT22;13010;-33.424;-70.614;2023-04-01T04:19:30;11.90;99.90
7349;DHT22;13010;-33.424;-70.614;2023-04-01T04:22:20;11.90;99.90
7349;DHT22;13010;-33.424;-70.614;2023-04-01T04:25:09;11.80;99.90
7349;DHT22;13010;-33.424;-70.614;2023-04-01T04:27:59;11.70;99.90
7349;DHT22;13010;-33.424;-70.614;2023-04-01T04:30:48;11.70;99.90
7349;DHT22;13010;-33.424;-70.614;2023-04-01T04:33:37;11.60;99.90
7349;DHT22;13010;-33.424;-70.614;2023-04-01T04:36:26;11.60;99.90
7349;DHT22;13010;-33.424;-70.614;2023-04-01T04:39:15;11.40;99.90
7349;DHT22;13010;-33.424;-70.614;2023-04-01T04:42:07;11.20;99.90
7349;DHT22;13010;-33.424;-70.614;2023-04-01T04:44:57;11.10;99.90
7349;DHT22;13010;-33.424;-70.614;2023-04-01T04:47:46;10.80;99.90
7349;DHT22;13010;-33.424;-70.614;2023-04-01T04:50:35;10.50;99.90
7349;DHT22;13010;-33.424;-70.614;2023-04-01T04:53:24;10.30;99.90
7349;DHT22;13010;-33.424;-70.614;2023-04-01T04:56:16;10.20;99.90
7349;DHT22;13010;-33.424;-70.614;2023-04-01T04:59:06;9.90;99.90
7349;DHT22;13010;-33.424;-70.614;2023-04-01T05:01:57;9.90;99.90
7349;DHT22;13010;-33.424;-70.614;2023-04-01T05:04:46;9.80;99.90
7349;DHT22;13010;-33.424;-70.614;2023-04-01T05:07:34;9.80;99.90
7349;DHT22;13010;-33.424;-70.614;2023-04-01T05:10:23;9.80;99.90
7349;DHT22;13010;-33.424;-70.614;2023-04-01T05:13:12;9.80;99.90
7349;DHT22;13010;-33.424;-70.614;2023-04-01T05:16:01;9.60;99.90
7349;DHT22;13010;-33.424;-70.614;2023-04-01T05:18:51;9.30;99.90
7349;DHT22;13010;-33.424;-70.614;2023-04-01T05:21:40;9.30;99.90
7349;DHT22;13010;-33.424;-70.614;2023-04-01T05:24:29;9.30;99.90
7349;DHT22;13010;-33.424;-70.614;2023-04-01T05:27:18;9.20;99.90
7349;DHT22;13010;-33.424;-70.614;2023-04-01T05:30:07;9.20;99.90
7349;DHT22;13010;-33.424;-70.614;2023-04-01T05:32:57;9.10;99.90
7349;DHT22;13010;-33.424;-70.614;2023-04-01T05:35:48;8.90;99.90
7349;DHT22;13010;-33.424;-70.614;2023-04-01T05:38:37;8.80;99.90
7349;DHT22;13010;-33.424;-70.614;2023-04-01T05:41:25;8.70;99.90
7349;DHT22;13010;-33.424;-70.614;2023-04-01T05:44:14;8.70;99.90
7349;DHT22;13010;-33.424;-70.614;2023-04-01T05:47:03;8.80;99.90
7349;DHT22;13010;-33.424;-70.614;2023-04-01T05:49:52;8.90;99.90
7349;DHT22;13010;-33.424;-70.614;2023-04-01T05:52:43;8.90;99.90
7349;DHT22;13010;-33.424;-70.614;2023-04-01T05:55:34;8.90;99.90
7349;DHT22;13010;-33.424;-70.614;2023-04-01T05:58:23;8.90;99.90
7349;DHT22;13010;-33.424;-70.614;2023-04-01T06:01:12;8.80;99.90
7349;DHT22;13010;-33.424;-70.614;2023-04-01T06:04:01;8.60;99.90
7349;DHT22;13010;-33.424;-70.614;2023-04-01T06:06:50;8.50;99.90
7349;DHT22;13010;-33.424;-70.614;2023-04-01T06:09:41;8.40;99.90
7349;DHT22;13010;-33.424;-70.614;2023-04-01T06:12:46;8.30;99.90
7349;DHT22;13010;-33.424;-70.614;2023-04-01T06:15:40;8.20;99.90
7349;DHT22;13010;-33.424;-70.614;2023-04-01T06:19:10;8.10;99.90
7349;DHT22;13010;-33.424;-70.614;2023-04-01T06:22:24;8.10;99.90
7349;DHT22;13010;-33.424;-70.614;2023-04-01T06:25:32;8.00;99.90
7349;DHT22;13010;-33.424;-70.614;2023-04-01T06:28:47;7.90;99.90
7349;DHT22;13010;-33.424;-70.614;2023-04-01T06:31:57;8.00;99.90
7349;DHT22;13010;-33.424;-70.614;2023-04-01T06:35:15;8.10;99.90
7349;DHT22;13010;-33.424;-70.614;2023-04-01T06:38:28;8.20;99.90
7349;DHT22;13010;-33.424;-70.614;2023-04-01T06:41:34;8.20;99.90
7349;DHT22;13010;-33.424;-70.614;2023-04-01T06:44:28;8.30;99.90
7349;DHT22;13010;-33.424;-70.614;2023-04-01T06:47:29;8.40;99.90
7349;DHT22;13010;-33.424;-70.614;2023-04-01T06:50:28;8.40;99.90
7349;DHT22;13010;-33.424;-70.614;2023-04-01T06:53:21;8.50;99.90
7349;DHT22;13010;-33.424;-70.614;2023-04-01T06:56:17;8.40;99.90
7349;DHT22;13010;-33.424;-70.614;2023-04-01T06:59:12;8.30;99.90
7349;DHT22;13010;-33.424;-70.614;2023-04-01T07:02:12;8.20;99.90
7349;DHT22;13010;-33.424;-70.614;2023-04-01T07:05:05;8.20;99.90
7349;DHT22;13010;-33.424;-70.614;2023-04-01T07:07:56;8.20;99.90
7349;DHT22;13010;-33.424;-70.614;2023-04-01T07:10:50;8.20;99.90
7349;DHT22;13010;-33.424;-70.614;2023-04-01T07:13:43;8.10;99.90
7349;DHT22;13010;-33.424;-70.614;2023-04-01T07:16:37;8.00;99.90
7349;DHT22;13010;-33.424;-70.614;2023-04-01T07:19:33;7.90;99.90
7349;DHT22;13010;-33.424;-70.614;2023-04-01T07:22:29;7.90;99.90
7349;DHT22;13010;-33.424;-70.614;2023-04-01T07:25:22;7.70;99.90
7349;DHT22;13010;-33.424;-70.614;2023-04-01T07:28:13;7.70;99.90
7349;DHT22;13010;-33.424;-70.614;2023-04-01T07:31:12;7.60;99.90
7349;DHT22;13010;-33.424;-70.614;2023-04-01T07:34:11;7.60;99.90
7349;DHT22;13010;-33.424;-70.614;2023-04-01T07:37:08;7.70;99.90
7349;DHT22;13010;-33.424;-70.614;2023-04-01T07:40:06;7.80;99.90
7349;DHT22;13010;-33.424;-70.614;2023-04-01T07:43:20;7.80;99.90
7349;DHT22;13010;-33.424;-70.614;2023-04-01T07:46:19;7.70;99.90
7349;DHT22;13010;-33.424;-70.614;2023-04-01T07:49:17;7.60;99.90
7349;DHT22;13010;-33.424;-70.614;2023-04-01T07:52:16;7.60;99.90
7349;DHT22;13010;-33.424;-70.614;2023-04-01T07:55:13;7.60;99.90
7349;DHT22;13010;-33.424;-70.614;2023-04-01T07:58:09;7.60;99.90
7349;DHT22;13010;-33.424;-70.614;2023-04-01T08:01:10;7.70;99.90
7349;DHT22;13010;-33.424;-70.614;2023-04-01T08:04:21;7.80;99.90
7349;DHT22;13010;-33.424;-70.614;2023-04-01T08:07:15;7.70;99.90
7349;DHT22;13010;-33.424;-70.614;2023-04-01T08:10:08;7.60;99.90
7349;DHT22;13010;-33.424;-70.614;2023-04-01T08:13:05;7.50;99.90
7349;DHT22;13010;-33.424;-70.614;2023-04-01T08:16:01;7.40;99.90
7349;DHT22;13010;-33.424;-70.614;2023-04-01T08:19:00;7.50;99.90
7349;DHT22;13010;-33.424;-70.614;2023-04-01T08:21:56;7.50;99.90
7349;DHT22;13010;-33.424;-70.614;2023-04-01T08:24:47;7.60;99.90
7349;DHT22;13010;-33.424;-70.614;2023-04-01T08:27:39;7.60;99.90
7349;DHT22;13010;-33.424;-70.614;2023-04-01T08:30:37;7.70;99.90
7349;DHT22;13010;-33.424;-70.614;2023-04-01T08:33:29;7.70;99.90
7349;DHT22;13010;-33.424;-70.614;2023-04-01T08:36:22;7.60;99.90
7349;DHT22;13010;-33.424;-70.614;2023-04-01T08:39:17;7.70;99.90
7349;DHT22;13010;-33.424;-70.614;2023-04-01T08:42:37;7.60;99.90
7349;DHT22;13010;-33.424;-70.614;2023-04-01T08:45:44;7.50;99.90
7349;DHT22;13010;-33.424;-70.614;2023-04-01T08:49:01;7.40;99.90
7349;DHT22;13010;-33.424;-70.614;2023-04-01T08:52:14;7.20;99.90
7349;DHT22;13010;-33.424;-70.614;2023-04-01T08:55:25;7.10;99.90
7349;DHT22;13010;-33.424;-70.614;2023-04-01T08:58:34;7.10;99.90
7349;DHT22;13010;-33.424;-70.614;2023-04-01T09:01:36;7.20;99.90
7349;DHT22;13010;-33.424;-70.614;2023-04-01T09:04:50;7.20;99.90
7349;DHT22;13010;-33.424;-70.614;2023-04-01T09:07:55;7.30;99.90
7349;DHT22;13010;-33.424;-70.614;2023-04-01T09:11:04;7.30;99.90
7349;DHT22;13010;-33.424;-70.614;2023-04-01T09:14:19;7.20;99.90
7349;DHT22;13010;-33.424;-70.614;2023-04-01T09:17:24;7.30;99.90
7349;DHT22;13010;-33.424;-70.614;2023-04-01T09:20:35;7.30;99.90
7349;DHT22;13010;-33.424;-70.614;2023-04-01T09:23:39;7.40;99.90
7349;DHT22;13010;-33.424;-70.614;2023-04-01T09:26:48;7.30;99.90
7349;DHT22;13010;-33.424;-70.614;2023-04-01T09:36:47;6.70;99.90
7349;DHT22;13010;-33.424;-70.614;2023-04-01T09:39:47;6.50;99.90
7349;DHT22;13010;-33.424;-70.614;2023-04-01T09:42:59;6.40;99.90
7349;DHT22;13010;-33.424;-70.614;2023-04-01T09:46:01;6.30;99.90
7349;DHT22;13010;-33.424;-70.614;2023-04-01T09:49:26;6.40;99.90
7349;DHT22;13010;-33.424;-70.614;2023-04-01T09:52:27;6.30;99.90
7349;DHT22;13010;-33.424;-70.614;2023-04-01T09:55:47;6.20;99.90
7349;DHT22;13010;-33.424;-70.614;2023-04-01T10:06:20;6.50;99.90
7349;DHT22;13010;-33.424;-70.614;2023-04-01T10:12:57;7.10;99.90
7349;DHT22;13010;-33.424;-70.614;2023-04-01T10:26:26;7.70;99.90
7349;DHT22;13010;-33.424;-70.614;2023-04-01T10:29:49;7.80;99.90
7349;DHT22;13010;-33.424;-70.614;2023-04-01T10:33:21;7.70;99.90
7349;DHT22;13010;-33.424;-70.614;2023-04-01T10:36:43;7.70;99.90
7349;DHT22;13010;-33.424;-70.614;2023-04-01T10:50:24;7.10;99.90
7349;DHT22;13010;-33.424;-70.614;2023-04-01T10:53:38;7.00;99.90
7349;DHT22;13010;-33.424;-70.614;2023-04-01T10:56:46;7.00;99.90
7349;DHT22;13010;-33.424;-70.614;2023-04-01T11:00:11;7.00;99.90
7349;DHT22;13010;-33.424;-70.614;2023-04-01T11:13:40;7.30;99.90
7349;DHT22;13010;-33.424;-70.614;2023-04-01T11:20:26;7.90;99.90
7349;DHT22;13010;-33.424;-70.614;2023-04-01T11:23:49;8.20;99.90
7349;DHT22;13010;-33.424;-70.614;2023-04-01T11:26:46;8.50;99.90
7349;DHT22;13010;-33.424;-70.614;2023-04-01T11:29:52;8.60;99.90
7349;DHT22;13010;-33.424;-70.614;2023-04-01T11:32:50;8.80;99.90
7349;DHT22;13010;-33.424;-70.614;2023-04-01T11:36:02;9.10;99.90
7349;DHT22;13010;-33.424;-70.614;2023-04-01T11:39:10;9.40;99.90
7349;DHT22;13010;-33.424;-70.614;2023-04-01T11:42:14;9.80;99.90
7349;DHT22;13010;-33.424;-70.614;2023-04-01T11:45:16;10.10;99.90
7349;DHT22;13010;-33.424;-70.614;2023-04-01T11:48:37;10.20;99.90
7349;DHT22;13010;-33.424;-70.614;2023-04-01T11:51:47;10.50;99.90
7349;DHT22;13010;-33.424;-70.614;2023-04-01T11:54:56;10.80;99.90
7349;DHT22;13010;-33.424;-70.614;2023-04-01T11:58:03;11.40;99.90
7349;DHT22;13010;-33.424;-70.614;2023-04-01T12:01:34;11.70;99.90
7349;DHT22;13010;-33.424;-70.614;2023-04-01T12:04:46;12.20;99.90
7349;DHT22;13010;-33.424;-70.614;2023-04-01T12:08:00;13.00;99.90
7349;DHT22;13010;-33.424;-70.614;2023-04-01T12:10:55;14.10;99.90
7349;DHT22;13010;-33.424;-70.614;2023-04-01T12:13:53;14.20;99.90
7349;DHT22;13010;-33.424;-70.614;2023-04-01T12:16:55;14.00;99.90
7349;DHT22;13010;-33.424;-70.614;2023-04-01T12:19:51;14.20;99.90
7349;DHT22;13010;-33.424;-70.614;2023-04-01T12:22:49;14.60;99.90
7349;DHT22;13010;-33.424;-70.614;2023-04-01T12:29:04;17.80;99.90
7349;DHT22;13010;-33.424;-70.614;2023-04-01T12:32:03;18.90;99.90
7349;DHT22;13010;-33.424;-70.614;2023-04-01T12:35:23;18.20;99.90
7349;DHT22;13010;-33.424;-70.614;2023-04-01T12:38:22;18.60;99.90
7349;DHT22;13010;-33.424;-70.614;2023-04-01T12:41:22;22.30;99.90
7349;DHT22;13010;-33.424;-70.614;2023-04-01T12:44:30;29.40;62.10
7349;DHT22;13010;-33.424;-70.614;2023-04-01T12:47:42;32.00;34.50
7349;DHT22;13010;-33.424;-70.614;2023-04-01T12:54:14;30.90;15.60
7349;DHT22;13010;-33.424;-70.614;2023-04-01T12:57:27;26.60;21.30
7349;DHT22;13010;-33.424;-70.614;2023-04-01T13:00:34;24.50;29.50
7349;DHT22;13010;-33.424;-70.614;2023-04-01T13:03:48;22.20;42.60
7349;DHT22;13010;-33.424;-70.614;2023-04-01T13:06:51;20.60;66.80
7349;DHT22;13010;-33.424;-70.614;2023-04-01T13:09:48;20.20;83.10
7349;DHT22;13010;-33.424;-70.614;2023-04-01T13:16:15;21.00;91.30
7349;DHT22;13010;-33.424;-70.614;2023-04-01T13:19:08;23.00;76.00
7349;DHT22;13010;-33.424;-70.614;2023-04-01T13:22:07;28.50;46.60
7349;DHT22;13010;-33.424;-70.614;2023-04-01T13:25:02;31.80;25.30
7349;DHT22;13010;-33.424;-70.614;2023-04-01T13:27:55;35.50;13.40
7349;DHT22;13010;-33.424;-70.614;2023-04-01T13:33:57;33.60;6.20
7349;DHT22;13010;-33.424;-70.614;2023-04-01T13:37:02;31.40;9.20
7349;DHT22;13010;-33.424;-70.614;2023-04-01T13:43:20;35.90;6.20
7349;DHT22;13010;-33.424;-70.614;2023-04-01T13:46:28;37.50;3.00
7349;DHT22;13010;-33.424;-70.614;2023-04-01T13:49:45;36.90;2.00
7349;DHT22;13010;-33.424;-70.614;2023-04-01T13:52:56;35.20;3.00
7349;DHT22;13010;-33.424;-70.614;2023-04-01T13:55:55;40.10;1.10
7349;DHT22;13010;-33.424;-70.614;2023-04-01T14:02:34;43.60;1.00
7349;DHT22;13010;-33.424;-70.614;2023-04-01T14:05:40;43.60;1.00
7349;DHT22;13010;-33.424;-70.614;2023-04-01T14:08:42;45.30;1.00
7349;DHT22;13010;-33.424;-70.614;2023-04-01T14:11:44;48.70;1.00
7349;DHT22;13010;-33.424;-70.614;2023-04-01T14:14:44;50.00;1.00
7349;DHT22;13010;-33.424;-70.614;2023-04-01T14:17:44;49.60;1.00
7349;DHT22;13010;-33.424;-70.614;2023-04-01T14:20:45;50.50;1.00
7349;DHT22;13010;-33.424;-70.614;2023-04-01T14:23:57;50.00;1.00
7349;DHT22;13010;-33.424;-70.614;2023-04-01T14:27:17;50.70;1.00
7349;DHT22;13010;-33.424;-70.614;2023-04-01T14:30:36;51.70;1.00
7349;DHT22;13010;-33.424;-70.614;2023-04-01T14:33:39;52.30;1.00
7349;DHT22;13010;-33.424;-70.614;2023-04-01T14:40:21;51.40;1.00
7349;DHT22;13010;-33.424;-70.614;2023-04-01T14:50:02;53.00;1.00
7349;DHT22;13010;-33.424;-70.614;2023-04-01T14:52:59;53.10;1.00
7349;DHT22;13010;-33.424;-70.614;2023-04-01T14:55:53;53.70;1.00
7349;DHT22;13010;-33.424;-70.614;2023-04-01T14:58:46;53.20;1.00
7349;DHT22;13010;-33.424;-70.614;2023-04-01T15:01:40;53.20;1.00
7349;DHT22;13010;-33.424;-70.614;2023-04-01T15:04:50;51.80;1.00
7349;DHT22;13010;-33.424;-70.614;2023-04-01T15:11:19;53.60;1.00
7349;DHT22;13010;-33.424;-70.614;2023-04-01T15:14:29;54.10;1.00
7349;DHT22;13010;-33.424;-70.614;2023-04-01T15:17:50;54.20;1.00
7349;DHT22;13010;-33.424;-70.614;2023-04-01T15:21:00;53.30;1.00
7349;DHT22;13010;-33.424;-70.614;2023-04-01T15:24:02;53.00;1.00
7349;DHT22;13010;-33.424;-70.614;2023-04-01T15:27:08;53.70;1.00
7349;DHT22;13010;-33.424;-70.614;2023-04-01T15:30:13;52.60;1.00
7349;DHT22;13010;-33.424;-70.614;2023-04-01T15:33:23;52.80;1.00
7349;DHT22;13010;-33.424;-70.614;2023-04-01T15:36:30;54.00;1.00
7349;DHT22;13010;-33.424;-70.614;2023-04-01T15:39:34;52.80;1.00
7349;DHT22;13010;-33.424;-70.614;2023-04-01T15:42:36;51.30;1.00
7349;DHT22;13010;-33.424;-70.614;2023-04-01T15:45:45;52.00;1.00
7349;DHT22;13010;-33.424;-70.614;2023-04-01T15:48:52;53.40;1.00
7349;DHT22;13010;-33.424;-70.614;2023-04-01T15:52:07;53.30;1.00
7349;DHT22;13010;-33.424;-70.614;2023-04-01T15:55:20;53.50;1.00
7349;DHT22;13010;-33.424;-70.614;2023-04-01T15:58:35;53.20;1.00
7349;DHT22;13010;-33.424;-70.614;2023-04-01T16:01:34;52.70;1.00
7349;DHT22;13010;-33.424;-70.614;2023-04-01T16:04:40;53.60;1.00
7349;DHT22;13010;-33.424;-70.614;2023-04-01T16:08:04;51.30;1.00
7349;DHT22;13010;-33.424;-70.614;2023-04-01T16:11:13;49.60;1.00
7349;DHT22;13010;-33.424;-70.614;2023-04-01T16:14:14;51.30;1.00
7349;DHT22;13010;-33.424;-70.614;2023-04-01T16:17:16;51.80;1.00
7349;DHT22;13010;-33.424;-70.614;2023-04-01T16:20:18;53.00;1.00
7349;DHT22;13010;-33.424;-70.614;2023-04-01T16:23:14;53.50;1.00
7349;DHT22;13010;-33.424;-70.614;2023-04-01T16:26:12;53.70;1.00
7349;DHT22;13010;-33.424;-70.614;2023-04-01T16:29:10;52.90;1.00
7349;DHT22;13010;-33.424;-70.614;2023-04-01T16:32:15;51.30;1.00
7349;DHT22;13010;-33.424;-70.614;2023-04-01T16:35:26;49.60;1.00
7349;DHT22;13010;-33.424;-70.614;2023-04-01T16:38:23;48.10;1.00
7349;DHT22;13010;-33.424;-70.614;2023-04-01T16:41:17;47.90;1.00
7349;DHT22;13010;-33.424;-70.614;2023-04-01T16:44:19;45.40;1.00
7349;DHT22;13010;-33.424;-70.614;2023-04-01T16:47:10;39.50;1.00
7349;DHT22;13010;-33.424;-70.614;2023-04-01T16:50:12;36.80;1.00
7349;DHT22;13010;-33.424;-70.614;2023-04-01T16:53:09;35.40;1.00
7349;DHT22;13010;-33.424;-70.614;2023-04-01T16:56:08;33.90;1.00
7349;DHT22;13010;-33.424;-70.614;2023-04-01T16:59:03;32.80;1.00
7349;DHT22;13010;-33.424;-70.614;2023-04-01T17:02:04;33.20;1.00
7349;DHT22;13010;-33.424;-70.614;2023-04-01T17:05:03;34.50;1.00
7349;DHT22;13010;-33.424;-70.614;2023-04-01T17:08:01;33.50;1.00
7349;DHT22;13010;-33.424;-70.614;2023-04-01T17:10:55;32.20;1.00
7349;DHT22;13010;-33.424;-70.614;2023-04-01T17:13:50;31.30;2.60
7349;DHT22;13010;-33.424;-70.614;2023-04-01T17:17:09;29.70;6.00
7349;DHT22;13010;-33.424;-70.614;2023-04-01T17:20:17;29.60;7.00
7349;DHT22;13010;-33.424;-70.614;2023-04-01T17:23:16;31.20;5.90
7349;DHT22;13010;-33.424;-70.614;2023-04-01T17:26:17;31.10;6.50
7349;DHT22;13010;-33.424;-70.614;2023-04-01T17:29:15;31.00;6.50
7349;DHT22;13010;-33.424;-70.614;2023-04-01T17:32:13;31.30;7.10
7349;DHT22;13010;-33.424;-70.614;2023-04-01T17:35:10;31.70;6.50
7349;DHT22;13010;-33.424;-70.614;2023-04-01T17:38:10;32.00;6.90
7349;DHT22;13010;-33.424;-70.614;2023-04-01T17:41:08;30.70;7.10
7349;DHT22;13010;-33.424;-70.614;2023-04-01T17:44:14;30.30;9.80
7349;DHT22;13010;-33.424;-70.614;2023-04-01T17:47:20;30.60;9.30
7349;DHT22;13010;-33.424;-70.614;2023-04-01T17:50:25;30.60;8.60
7349;DHT22;13010;-33.424;-70.614;2023-04-01T17:53:24;30.80;8.90
7349;DHT22;13010;-33.424;-70.614;2023-04-01T17:56:36;31.20;8.70
7349;DHT22;13010;-33.424;-70.614;2023-04-01T17:59:35;35.00;5.90
7349;DHT22;13010;-33.424;-70.614;2023-04-01T18:02:33;38.00;2.70
7349;DHT22;13010;-33.424;-70.614;2023-04-01T18:08:55;38.80;1.00
7349;DHT22;13010;-33.424;-70.614;2023-04-01T18:11:54;40.00;1.00
7349;DHT22;13010;-33.424;-70.614;2023-04-01T18:15:03;38.60;1.00
7349;DHT22;13010;-33.424;-70.614;2023-04-01T18:18:07;37.50;1.00
7349;DHT22;13010;-33.424;-70.614;2023-04-01T18:21:03;37.10;1.00
7349;DHT22;13010;-33.424;-70.614;2023-04-01T18:23:57;37.40;1.00
7349;DHT22;13010;-33.424;-70.614;2023-04-01T18:26:50;35.90;1.00
7349;DHT22;13010;-33.424;-70.614;2023-04-01T18:29:51;33.30;2.00
7349;DHT22;13010;-33.424;-70.614;2023-04-01T18:32:48;31.70;4.00
7349;DHT22;13010;-33.424;-70.614;2023-04-01T18:35:50;30.90;5.00
7349;DHT22;13010;-33.424;-70.614;2023-04-01T18:38:47;30.60;7.80
7349;DHT22;13010;-33.424;-70.614;2023-04-01T18:41:53;30.10;7.70
7349;DHT22;13010;-33.424;-70.614;2023-04-01T18:44:47;29.70;8.90
7349;DHT22;13010;-33.424;-70.614;2023-04-01T18:47:41;29.70;10.20
7349;DHT22;13010;-33.424;-70.614;2023-04-01T18:50:40;29.50;10.20
7349;DHT22;13010;-33.424;-70.614;2023-04-01T18:53:40;29.40;10.90
7349;DHT22;13010;-33.424;-70.614;2023-04-01T18:56:35;29.50;9.50
7349;DHT22;13010;-33.424;-70.614;2023-04-01T18:59:27;29.30;9.70
7349;DHT22;13010;-33.424;-70.614;2023-04-01T19:02:25;29.20;10.30
7349;DHT22;13010;-33.424;-70.614;2023-04-01T19:05:18;28.90;11.30
7349;DHT22;13010;-33.424;-70.614;2023-04-01T19:08:19;28.80;12.20
7349;DHT22;13010;-33.424;-70.614;2023-04-01T19:11:17;28.80;11.50
7349;DHT22;13010;-33.424;-70.614;2023-04-01T19:14:19;28.70;13.00
7349;DHT22;13010;-33.424;-70.614;2023-04-01T19:17:19;29.20;13.80
7349;DHT22;13010;-33.424;-70.614;2023-04-01T19:20:18;29.80;14.10
7349;DHT22;13010;-33.424;-70.614;2023-04-01T19:26:46;29.50;13.00
7349;DHT22;13010;-33.424;-70.614;2023-04-01T19:29:52;29.20;13.40
7349;DHT22;13010;-33.424;-70.614;2023-04-01T19:32:50;29.40;15.10
7349;DHT22;13010;-33.424;-70.614;2023-04-01T19:35:47;29.60;15.00
7349;DHT22;13010;-33.424;-70.614;2023-04-01T19:38:39;29.30;15.10
7349;DHT22;13010;-33.424;-70.614;2023-04-01T19:41:36;29.00;15.90
7349;DHT22;13010;-33.424;-70.614;2023-04-01T19:44:38;28.70;18.20
7349;DHT22;13010;-33.424;-70.614;2023-04-01T19:47:44;28.20;17.60
7349;DHT22;13010;-33.424;-70.614;2023-04-01T19:50:38;28.00;19.20
7349;DHT22;13010;-33.424;-70.614;2023-04-01T19:53:34;27.80;19.30
7349;DHT22;13010;-33.424;-70.614;2023-04-01T19:56:25;27.70;19.40
7349;DHT22;13010;-33.424;-70.614;2023-04-01T19:59:23;27.70;21.00